Dalton, Indiana
Current Conditions -  °F | °C
As of 8:53 AM on Thursday 30 Oct 2014 (Local Time) from KMIE Reporting Station
Overcast Overcast  
Wind Chill: 43°   Ceiling: 3500
Heat Index: 43°   Visibility: 10mi
Dew Point: 37°   Wind: 3mph
Humidity: 80%   Direction: 260°W
Pressure: 30.17"   Gusts: NA
Location:  39.9342°N, 85.1531°W
Report Text: KMIE 301253Z 26003KT 10SM OVC035 06/03 A3017 RMK AO2 SLP215 T00610028
Loading
Personal Weather Stations






























Interactive Weather Map New forecast layout! Learn more

10-Day Weather Forecast

Advertisements
Track Severe Weather on mobile